sensor_id;sensor_type;location;lat;lon;timestamp;P1;durP1;ratioP1;P2;durP2;ratioP2
12088;SDS011;6107;49.078;8.578;2023-08-01T00:01:50;6.30;;;3.90;;
12088;SDS011;6107;49.078;8.578;2023-08-01T00:04:15;9.68;;;4.80;;
12088;SDS011;6107;49.078;8.578;2023-08-01T00:06:41;7.45;;;4.32;;
12088;SDS011;6107;49.078;8.578;2023-08-01T00:09:07;8.60;;;4.43;;
12088;SDS011;6107;49.078;8.578;2023-08-01T00:11:32;6.38;;;4.22;;
12088;SDS011;6107;49.078;8.578;2023-08-01T00:13:58;8.07;;;4.20;;
12088;SDS011;6107;49.078;8.578;2023-08-01T00:16:23;5.80;;;3.83;;
12088;SDS011;6107;49.078;8.578;2023-08-01T00:18:49;7.82;;;3.88;;
12088;SDS011;6107;49.078;8.578;2023-08-01T00:21:15;8.10;;;4.40;;
12088;SDS011;6107;49.078;8.578;2023-08-01T00:23:40;7.90;;;4.40;;
12088;SDS011;6107;49.078;8.578;2023-08-01T00:26:06;8.15;;;4.60;;
12088;SDS011;6107;49.078;8.578;2023-08-01T00:28:32;8.85;;;4.75;;
12088;SDS011;6107;49.078;8.578;2023-08-01T00:33:36;8.30;;;4.32;;
12088;SDS011;6107;49.078;8.578;2023-08-01T00:36:02;7.15;;;4.47;;
12088;SDS011;6107;49.078;8.578;2023-08-01T00:38:28;7.53;;;4.30;;
12088;SDS011;6107;49.078;8.578;2023-08-01T00:40:53;10.07;;;4.45;;
12088;SDS011;6107;49.078;8.578;2023-08-01T00:43:19;7.18;;;4.43;;
12088;SDS011;6107;49.078;8.578;2023-08-01T00:45:45;7.40;;;4.05;;
12088;SDS011;6107;49.078;8.578;2023-08-01T00:48:11;6.32;;;4.03;;
12088;SDS011;6107;49.078;8.578;2023-08-01T00:50:37;8.48;;;4.47;;
12088;SDS011;6107;49.078;8.578;2023-08-01T00:53:03;7.78;;;3.90;;
12088;SDS011;6107;49.078;8.578;2023-08-01T00:55:31;6.63;;;4.18;;
12088;SDS011;6107;49.078;8.578;2023-08-01T00:57:59;8.65;;;4.05;;
12088;SDS011;6107;49.078;8.578;2023-08-01T01:00:24;6.22;;;4.22;;
12088;SDS011;6107;49.078;8.578;2023-08-01T01:02:50;7.55;;;4.30;;
12088;SDS011;6107;49.078;8.578;2023-08-01T01:05:15;7.22;;;4.68;;
12088;SDS011;6107;49.078;8.578;2023-08-01T01:07:41;6.55;;;4.13;;
12088;SDS011;6107;49.078;8.578;2023-08-01T01:10:08;7.88;;;3.83;;
12088;SDS011;6107;49.078;8.578;2023-08-01T01:12:34;11.23;;;4.20;;
12088;SDS011;6107;49.078;8.578;2023-08-01T01:15:00;6.30;;;3.78;;
12088;SDS011;6107;49.078;8.578;2023-08-01T01:17:25;7.43;;;3.67;;
12088;SDS011;6107;49.078;8.578;2023-08-01T01:19:51;9.82;;;4.30;;
12088;SDS011;6107;49.078;8.578;2023-08-01T01:22:16;8.27;;;3.95;;
12088;SDS011;6107;49.078;8.578;2023-08-01T01:24:43;5.85;;;3.60;;
12088;SDS011;6107;49.078;8.578;2023-08-01T01:27:10;7.22;;;4.18;;
12088;SDS011;6107;49.078;8.578;2023-08-01T01:29:37;7.22;;;3.83;;
12088;SDS011;6107;49.078;8.578;2023-08-01T01:32:04;7.93;;;3.78;;
12088;SDS011;6107;49.078;8.578;2023-08-01T01:34:31;7.82;;;4.18;;
12088;SDS011;6107;49.078;8.578;2023-08-01T01:36:56;6.65;;;4.22;;
12088;SDS011;6107;49.078;8.578;2023-08-01T01:39:22;11.15;;;4.63;;
12088;SDS011;6107;49.078;8.578;2023-08-01T01:41:47;6.07;;;4.03;;
12088;SDS011;6107;49.078;8.578;2023-08-01T01:44:13;7.28;;;4.35;;
12088;SDS011;6107;49.078;8.578;2023-08-01T01:46:38;6.82;;;4.45;;
12088;SDS011;6107;49.078;8.578;2023-08-01T01:49:04;7.85;;;4.32;;
12088;SDS011;6107;49.078;8.578;2023-08-01T01:51:30;7.35;;;4.25;;
12088;SDS011;6107;49.078;8.578;2023-08-01T01:53:55;6.40;;;3.90;;
12088;SDS011;6107;49.078;8.578;2023-08-01T01:56:21;6.65;;;4.35;;
12088;SDS011;6107;49.078;8.578;2023-08-01T01:58:47;6.38;;;4.13;;
12088;SDS011;6107;49.078;8.578;2023-08-01T02:01:12;9.23;;;4.38;;
12088;SDS011;6107;49.078;8.578;2023-08-01T02:03:38;8.30;;;3.72;;
12088;SDS011;6107;49.078;8.578;2023-08-01T02:06:03;7.57;;;4.38;;
12088;SDS011;6107;49.078;8.578;2023-08-01T02:08:29;6.15;;;4.10;;
12088;SDS011;6107;49.078;8.578;2023-08-01T02:10:55;7.30;;;4.18;;
12088;SDS011;6107;49.078;8.578;2023-08-01T02:13:23;7.32;;;3.88;;
12088;SDS011;6107;49.078;8.578;2023-08-01T02:15:52;8.77;;;4.25;;
12088;SDS011;6107;49.078;8.578;2023-08-01T02:18:19;5.90;;;4.13;;
12088;SDS011;6107;49.078;8.578;2023-08-01T02:20:44;7.53;;;4.28;;
12088;SDS011;6107;49.078;8.578;2023-08-01T02:23:10;6.28;;;4.15;;
12088;SDS011;6107;49.078;8.578;2023-08-01T02:25:39;6.95;;;3.97;;
12088;SDS011;6107;49.078;8.578;2023-08-01T02:28:05;8.35;;;4.07;;
12088;SDS011;6107;49.078;8.578;2023-08-01T02:30:31;8.02;;;4.25;;
12088;SDS011;6107;49.078;8.578;2023-08-01T02:32:56;9.65;;;4.30;;
12088;SDS011;6107;49.078;8.578;2023-08-01T02:35:22;8.48;;;4.22;;
12088;SDS011;6107;49.078;8.578;2023-08-01T02:37:47;7.47;;;4.32;;
12088;SDS011;6107;49.078;8.578;2023-08-01T02:40:13;6.00;;;4.18;;
12088;SDS011;6107;49.078;8.578;2023-08-01T02:42:38;7.20;;;4.55;;
12088;SDS011;6107;49.078;8.578;2023-08-01T02:45:04;5.68;;;3.92;;
12088;SDS011;6107;49.078;8.578;2023-08-01T02:47:30;9.43;;;4.05;;
12088;SDS011;6107;49.078;8.578;2023-08-01T02:49:56;6.90;;;4.25;;
12088;SDS011;6107;49.078;8.578;2023-08-01T02:52:21;7.03;;;4.18;;
12088;SDS011;6107;49.078;8.578;2023-08-01T02:54:47;5.82;;;3.97;;
12088;SDS011;6107;49.078;8.578;2023-08-01T02:57:12;8.75;;;4.43;;
12088;SDS011;6107;49.078;8.578;2023-08-01T02:59:38;9.50;;;4.75;;
12088;SDS011;6107;49.078;8.578;2023-08-01T03:02:03;6.78;;;4.50;;
12088;SDS011;6107;49.078;8.578;2023-08-01T03:04:29;7.88;;;4.35;;
12088;SDS011;6107;49.078;8.578;2023-08-01T03:06:54;6.32;;;3.90;;
12088;SDS011;6107;49.078;8.578;2023-08-01T03:09:20;7.93;;;4.50;;
12088;SDS011;6107;49.078;8.578;2023-08-01T03:11:46;7.95;;;4.93;;
12088;SDS011;6107;49.078;8.578;2023-08-01T03:14:11;7.47;;;4.32;;
12088;SDS011;6107;49.078;8.578;2023-08-01T03:16:37;7.10;;;4.47;;
12088;SDS011;6107;49.078;8.578;2023-08-01T03:19:02;10.73;;;4.38;;
12088;SDS011;6107;49.078;8.578;2023-08-01T03:21:32;7.57;;;4.68;;
12088;SDS011;6107;49.078;8.578;2023-08-01T03:23:59;7.60;;;4.55;;
12088;SDS011;6107;49.078;8.578;2023-08-01T03:26:25;7.88;;;4.68;;
12088;SDS011;6107;49.078;8.578;2023-08-01T03:28:53;7.85;;;4.32;;
12088;SDS011;6107;49.078;8.578;2023-08-01T03:31:20;9.90;;;4.15;;
12088;SDS011;6107;49.078;8.578;2023-08-01T03:33:46;6.22;;;4.22;;
12088;SDS011;6107;49.078;8.578;2023-08-01T03:36:12;6.57;;;4.00;;
12088;SDS011;6107;49.078;8.578;2023-08-01T03:38:37;6.75;;;4.03;;
12088;SDS011;6107;49.078;8.578;2023-08-01T03:41:03;8.63;;;3.92;;
12088;SDS011;6107;49.078;8.578;2023-08-01T03:43:29;7.30;;;4.32;;
12088;SDS011;6107;49.078;8.578;2023-08-01T03:45:55;8.02;;;4.10;;
12088;SDS011;6107;49.078;8.578;2023-08-01T03:48:20;7.43;;;4.22;;
12088;SDS011;6107;49.078;8.578;2023-08-01T03:50:46;7.82;;;4.13;;
12088;SDS011;6107;49.078;8.578;2023-08-01T03:53:11;8.82;;;4.50;;
12088;SDS011;6107;49.078;8.578;2023-08-01T03:55:37;8.88;;;4.70;;
12088;SDS011;6107;49.078;8.578;2023-08-01T03:58:02;7.13;;;4.72;;
12088;SDS011;6107;49.078;8.578;2023-08-01T04:00:28;9.15;;;7.28;;
12088;SDS011;6107;49.078;8.578;2023-08-01T04:03:00;8.20;;;3.92;;
12088;SDS011;6107;49.078;8.578;2023-08-01T04:05:26;7.57;;;4.53;;
12088;SDS011;6107;49.078;8.578;2023-08-01T04:07:52;8.30;;;4.60;;
12088;SDS011;6107;49.078;8.578;2023-08-01T04:10:20;8.13;;;4.30;;
12088;SDS011;6107;49.078;8.578;2023-08-01T04:12:46;5.43;;;4.20;;
12088;SDS011;6107;49.078;8.578;2023-08-01T04:15:11;7.15;;;4.13;;
12088;SDS011;6107;49.078;8.578;2023-08-01T04:17:37;6.75;;;4.18;;
12088;SDS011;6107;49.078;8.578;2023-08-01T04:20:02;5.95;;;4.00;;
12088;SDS011;6107;49.078;8.578;2023-08-01T04:22:28;8.25;;;3.72;;
12088;SDS011;6107;49.078;8.578;2023-08-01T04:24:54;8.98;;;4.07;;
12088;SDS011;6107;49.078;8.578;2023-08-01T04:27:19;5.90;;;4.20;;
12088;SDS011;6107;49.078;8.578;2023-08-01T04:29:45;8.68;;;4.28;;
12088;SDS011;6107;49.078;8.578;2023-08-01T04:32:11;9.27;;;4.50;;
12088;SDS011;6107;49.078;8.578;2023-08-01T04:34:38;6.50;;;3.85;;
12088;SDS011;6107;49.078;8.578;2023-08-01T04:37:04;7.45;;;3.88;;
12088;SDS011;6107;49.078;8.578;2023-08-01T04:39:30;11.90;;;4.00;;
12088;SDS011;6107;49.078;8.578;2023-08-01T04:41:56;8.30;;;4.05;;
12088;SDS011;6107;49.078;8.578;2023-08-01T04:44:21;10.05;;;4.28;;
12088;SDS011;6107;49.078;8.578;2023-08-01T04:46:47;5.47;;;3.88;;
12088;SDS011;6107;49.078;8.578;2023-08-01T04:49:13;9.18;;;3.88;;
12088;SDS011;6107;49.078;8.578;2023-08-01T04:51:39;7.13;;;4.13;;
12088;SDS011;6107;49.078;8.578;2023-08-01T04:54:05;6.60;;;4.18;;
12088;SDS011;6107;49.078;8.578;2023-08-01T04:56:30;8.75;;;4.35;;
12088;SDS011;6107;49.078;8.578;2023-08-01T04:58:56;12.10;;;4.68;;
12088;SDS011;6107;49.078;8.578;2023-08-01T05:01:22;7.85;;;3.83;;
12088;SDS011;6107;49.078;8.578;2023-08-01T05:03:47;8.60;;;3.83;;
12088;SDS011;6107;49.078;8.578;2023-08-01T05:06:13;7.65;;;4.05;;
12088;SDS011;6107;49.078;8.578;2023-08-01T05:08:38;7.35;;;4.30;;
12088;SDS011;6107;49.078;8.578;2023-08-01T05:11:04;10.25;;;4.15;;
12088;SDS011;6107;49.078;8.578;2023-08-01T05:13:29;7.22;;;4.15;;
12088;SDS011;6107;49.078;8.578;2023-08-01T05:15:55;7.20;;;4.07;;
12088;SDS011;6107;49.078;8.578;2023-08-01T05:18:20;6.93;;;4.55;;
12088;SDS011;6107;49.078;8.578;2023-08-01T05:20:46;6.10;;;4.13;;
12088;SDS011;6107;49.078;8.578;2023-08-01T05:23:11;7.65;;;4.40;;
12088;SDS011;6107;49.078;8.578;2023-08-01T05:25:37;9.48;;;4.72;;
12088;SDS011;6107;49.078;8.578;2023-08-01T05:28:03;5.97;;;3.85;;
12088;SDS011;6107;49.078;8.578;2023-08-01T05:30:28;6.63;;;3.70;;
12088;SDS011;6107;49.078;8.578;2023-08-01T05:32:54;7.03;;;3.80;;
12088;SDS011;6107;49.078;8.578;2023-08-01T05:35:20;6.80;;;4.22;;
12088;SDS011;6107;49.078;8.578;2023-08-01T05:37:46;8.25;;;4.20;;
12088;SDS011;6107;49.078;8.578;2023-08-01T05:40:12;6.95;;;3.75;;
12088;SDS011;6107;49.078;8.578;2023-08-01T05:42:37;8.00;;;4.35;;
12088;SDS011;6107;49.078;8.578;2023-08-01T05:45:03;7.90;;;4.47;;
12088;SDS011;6107;49.078;8.578;2023-08-01T05:47:29;6.93;;;4.43;;
12088;SDS011;6107;49.078;8.578;2023-08-01T05:49:55;7.85;;;4.28;;
12088;SDS011;6107;49.078;8.578;2023-08-01T05:52:21;9.90;;;4.30;;
12088;SDS011;6107;49.078;8.578;2023-08-01T05:54:47;6.82;;;4.22;;
12088;SDS011;6107;49.078;8.578;2023-08-01T05:57:12;8.60;;;4.50;;
12088;SDS011;6107;49.078;8.578;2023-08-01T05:59:38;8.52;;;4.28;;
12088;SDS011;6107;49.078;8.578;2023-08-01T06:02:03;8.65;;;4.50;;
12088;SDS011;6107;49.078;8.578;2023-08-01T06:04:29;12.15;;;4.78;;
12088;SDS011;6107;49.078;8.578;2023-08-01T06:06:54;7.20;;;4.47;;
12088;SDS011;6107;49.078;8.578;2023-08-01T06:09:21;7.47;;;4.20;;
12088;SDS011;6107;49.078;8.578;2023-08-01T06:11:46;9.73;;;4.57;;
12088;SDS011;6107;49.078;8.578;2023-08-01T06:14:12;9.20;;;4.75;;
12088;SDS011;6107;49.078;8.578;2023-08-01T06:16:38;8.70;;;4.32;;
12088;SDS011;6107;49.078;8.578;2023-08-01T06:19:03;8.27;;;4.47;;
12088;SDS011;6107;49.078;8.578;2023-08-01T06:21:29;9.43;;;4.72;;
12088;SDS011;6107;49.078;8.578;2023-08-01T06:23:55;9.02;;;4.65;;
12088;SDS011;6107;49.078;8.578;2023-08-01T06:26:20;9.75;;;4.43;;
12088;SDS011;6107;49.078;8.578;2023-08-01T06:28:46;7.38;;;4.47;;
12088;SDS011;6107;49.078;8.578;2023-08-01T06:31:12;7.90;;;4.63;;
12088;SDS011;6107;49.078;8.578;2023-08-01T06:33:37;8.60;;;5.13;;
12088;SDS011;6107;49.078;8.578;2023-08-01T06:36:03;6.63;;;4.70;;
12088;SDS011;6107;49.078;8.578;2023-08-01T06:38:29;9.20;;;5.20;;
12088;SDS011;6107;49.078;8.578;2023-08-01T06:40:55;8.50;;;4.50;;
12088;SDS011;6107;49.078;8.578;2023-08-01T06:43:20;11.63;;;5.53;;
12088;SDS011;6107;49.078;8.578;2023-08-01T06:45:46;9.40;;;5.13;;
12088;SDS011;6107;49.078;8.578;2023-08-01T06:48:11;9.05;;;4.93;;
12088;SDS011;6107;49.078;8.578;2023-08-01T06:50:37;10.02;;;5.22;;
12088;SDS011;6107;49.078;8.578;2023-08-01T06:53:02;8.90;;;5.07;;
12088;SDS011;6107;49.078;8.578;2023-08-01T06:55:28;8.90;;;4.90;;
12088;SDS011;6107;49.078;8.578;2023-08-01T06:57:53;9.18;;;4.90;;
12088;SDS011;6107;49.078;8.578;2023-08-01T07:00:19;8.82;;;4.70;;
12088;SDS011;6107;49.078;8.578;2023-08-01T07:02:44;8.25;;;4.72;;
12088;SDS011;6107;49.078;8.578;2023-08-01T07:05:10;7.78;;;4.40;;
12088;SDS011;6107;49.078;8.578;2023-08-01T07:07:36;14.18;;;5.13;;
12088;SDS011;6107;49.078;8.578;2023-08-01T07:10:01;9.32;;;5.18;;
12088;SDS011;6107;49.078;8.578;2023-08-01T07:12:27;10.05;;;4.75;;
12088;SDS011;6107;49.078;8.578;2023-08-01T07:14:52;8.65;;;4.90;;
12088;SDS011;6107;49.078;8.578;2023-08-01T07:17:21;8.82;;;5.05;;
12088;SDS011;6107;49.078;8.578;2023-08-01T07:19:47;9.05;;;4.90;;
12088;SDS011;6107;49.078;8.578;2023-08-01T07:22:13;8.07;;;4.75;;
12088;SDS011;6107;49.078;8.578;2023-08-01T07:24:38;8.48;;;4.53;;
12088;SDS011;6107;49.078;8.578;2023-08-01T07:27:04;9.20;;;4.68;;
12088;SDS011;6107;49.078;8.578;2023-08-01T07:29:30;6.80;;;4.80;;
12088;SDS011;6107;49.078;8.578;2023-08-01T07:31:55;10.00;;;5.03;;
12088;SDS011;6107;49.078;8.578;2023-08-01T07:34:21;9.18;;;4.40;;
12088;SDS011;6107;49.078;8.578;2023-08-01T07:36:47;8.80;;;4.70;;
12088;SDS011;6107;49.078;8.578;2023-08-01T07:39:14;6.75;;;4.65;;
12088;SDS011;6107;49.078;8.578;2023-08-01T07:41:39;8.85;;;4.75;;
12088;SDS011;6107;49.078;8.578;2023-08-01T07:44:05;7.68;;;4.25;;
12088;SDS011;6107;49.078;8.578;2023-08-01T07:46:31;8.23;;;4.40;;
12088;SDS011;6107;49.078;8.578;2023-08-01T07:48:57;7.07;;;4.18;;
12088;SDS011;6107;49.078;8.578;2023-08-01T07:51:24;8.30;;;4.45;;
12088;SDS011;6107;49.078;8.578;2023-08-01T07:53:50;6.35;;;4.10;;
12088;SDS011;6107;49.078;8.578;2023-08-01T07:56:17;8.38;;;4.03;;
12088;SDS011;6107;49.078;8.578;2023-08-01T07:58:43;6.97;;;3.80;;
12088;SDS011;6107;49.078;8.578;2023-08-01T08:01:08;7.20;;;3.70;;
12088;SDS011;6107;49.078;8.578;2023-08-01T08:03:34;7.65;;;4.00;;
12088;SDS011;6107;49.078;8.578;2023-08-01T08:05:59;5.65;;;3.25;;
12088;SDS011;6107;49.078;8.578;2023-08-01T08:08:25;3.83;;;3.05;;
12088;SDS011;6107;49.078;8.578;2023-08-01T08:10:52;4.15;;;2.72;;
12088;SDS011;6107;49.078;8.578;2023-08-01T08:13:17;4.47;;;2.72;;
12088;SDS011;6107;49.078;8.578;2023-08-01T08:15:43;3.20;;;2.10;;
12088;SDS011;6107;49.078;8.578;2023-08-01T08:18:08;4.20;;;2.30;;
12088;SDS011;6107;49.078;8.578;2023-08-01T08:20:40;4.57;;;2.70;;
12088;SDS011;6107;49.078;8.578;2023-08-01T08:23:09;2.67;;;2.00;;
12088;SDS011;6107;49.078;8.578;2023-08-01T08:25:36;2.55;;;2.00;;
12088;SDS011;6107;49.078;8.578;2023-08-01T08:28:02;3.33;;;2.05;;
12088;SDS011;6107;49.078;8.578;2023-08-01T08:30:28;4.47;;;2.03;;
12088;SDS011;6107;49.078;8.578;2023-08-01T08:32:53;3.20;;;1.92;;
12088;SDS011;6107;49.078;8.578;2023-08-01T08:35:19;2.13;;;1.80;;
12088;SDS011;6107;49.078;8.578;2023-08-01T08:37:44;3.80;;;2.17;;
12088;SDS011;6107;49.078;8.578;2023-08-01T08:40:10;6.00;;;2.80;;
12088;SDS011;6107;49.078;8.578;2023-08-01T08:42:38;3.08;;;2.15;;
12088;SDS011;6107;49.078;8.578;2023-08-01T08:45:05;4.13;;;2.25;;
12088;SDS011;6107;49.078;8.578;2023-08-01T08:47:31;8.55;;;2.67;;
12088;SDS011;6107;49.078;8.578;2023-08-01T08:50:01;4.57;;;2.10;;
12088;SDS011;6107;49.078;8.578;2023-08-01T08:52:27;4.80;;;2.42;;
12088;SDS011;6107;49.078;8.578;2023-08-01T08:54:53;4.07;;;2.50;;
12088;SDS011;6107;49.078;8.578;2023-08-01T08:57:20;4.90;;;2.28;;
12088;SDS011;6107;49.078;8.578;2023-08-01T08:59:46;3.80;;;2.50;;
12088;SDS011;6107;49.078;8.578;2023-08-01T09:02:13;3.88;;;2.75;;
12088;SDS011;6107;49.078;8.578;2023-08-01T09:04:40;2.88;;;2.10;;
12088;SDS011;6107;49.078;8.578;2023-08-01T09:07:08;2.75;;;2.10;;
12088;SDS011;6107;49.078;8.578;2023-08-01T09:09:36;3.42;;;2.10;;
12088;SDS011;6107;49.078;8.578;2023-08-01T09:12:02;3.65;;;1.98;;
12088;SDS011;6107;49.078;8.578;2023-08-01T09:14:29;3.30;;;1.90;;
12088;SDS011;6107;49.078;8.578;2023-08-01T09:16:54;2.97;;;2.10;;
12088;SDS011;6107;49.078;8.578;2023-08-01T09:19:21;2.38;;;2.00;;
12088;SDS011;6107;49.078;8.578;2023-08-01T09:21:48;2.78;;;2.28;;
12088;SDS011;6107;49.078;8.578;2023-08-01T09:24:16;2.53;;;1.92;;
12088;SDS011;6107;49.078;8.578;2023-08-01T09:26:44;3.28;;;2.22;;
12088;SDS011;6107;49.078;8.578;2023-08-01T09:29:10;3.40;;;2.10;;
12088;SDS011;6107;49.078;8.578;2023-08-01T09:31:37;5.97;;;2.20;;
12088;SDS011;6107;49.078;8.578;2023-08-01T09:34:18;3.97;;;2.10;;
12088;SDS011;6107;49.078;8.578;2023-08-01T09:36:48;3.00;;;2.00;;
12088;SDS011;6107;49.078;8.578;2023-08-01T09:39:16;3.35;;;2.08;;
12088;SDS011;6107;49.078;8.578;2023-08-01T09:41:42;3.22;;;1.90;;
12088;SDS011;6107;49.078;8.578;2023-08-01T09:44:15;3.00;;;2.25;;
12088;SDS011;6107;49.078;8.578;2023-08-01T09:46:41;2.20;;;1.75;;
12088;SDS011;6107;49.078;8.578;2023-08-01T09:49:11;1.83;;;1.50;;
12088;SDS011;6107;49.078;8.578;2023-08-01T09:51:50;2.35;;;1.70;;
12088;SDS011;6107;49.078;8.578;2023-08-01T09:54:16;1.80;;;1.60;;
12088;SDS011;6107;49.078;8.578;2023-08-01T09:56:46;1.60;;;1.50;;
12088;SDS011;6107;49.078;8.578;2023-08-01T09:59:20;1.92;;;1.35;;
12088;SDS011;6107;49.078;8.578;2023-08-01T10:01:47;1.98;;;1.30;;
12088;SDS011;6107;49.078;8.578;2023-08-01T10:04:15;1.23;;;1.10;;
12088;SDS011;6107;49.078;8.578;2023-08-01T10:06:46;1.30;;;1.20;;
12088;SDS011;6107;49.078;8.578;2023-08-01T10:09:16;2.03;;;1.13;;
12088;SDS011;6107;49.078;8.578;2023-08-01T10:11:42;1.20;;;1.10;;
12088;SDS011;6107;49.078;8.578;2023-08-01T10:14:09;2.17;;;0.90;;
12088;SDS011;6107;49.078;8.578;2023-08-01T10:16:35;1.90;;;1.20;;
12088;SDS011;6107;49.078;8.578;2023-08-01T10:19:02;1.95;;;0.90;;
12088;SDS011;6107;49.078;8.578;2023-08-01T10:21:27;1.38;;;1.10;;
12088;SDS011;6107;49.078;8.578;2023-08-01T10:23:54;1.30;;;1.08;;
12088;SDS011;6107;49.078;8.578;2023-08-01T10:26:23;1.20;;;1.10;;
12088;SDS011;6107;49.078;8.578;2023-08-01T10:28:50;1.40;;;1.30;;
12088;SDS011;6107;49.078;8.578;2023-08-01T10:31:17;1.50;;;1.25;;
12088;SDS011;6107;49.078;8.578;2023-08-01T10:33:45;1.90;;;1.58;;
12088;SDS011;6107;49.078;8.578;2023-08-01T10:36:19;3.47;;;1.90;;
12088;SDS011;6107;49.078;8.578;2023-08-01T10:38:48;1.40;;;1.30;;
12088;SDS011;6107;49.078;8.578;2023-08-01T10:41:19;1.70;;;1.40;;
12088;SDS011;6107;49.078;8.578;2023-08-01T10:43:51;1.88;;;1.38;;
12088;SDS011;6107;49.078;8.578;2023-08-01T10:46:16;2.90;;;1.05;;
12088;SDS011;6107;49.078;8.578;2023-08-01T10:48:51;2.38;;;1.10;;
12088;SDS011;6107;49.078;8.578;2023-08-01T10:51:18;3.03;;;1.20;;
12088;SDS011;6107;49.078;8.578;2023-08-01T10:53:44;1.90;;;1.30;;
12088;SDS011;6107;49.078;8.578;2023-08-01T10:56:17;1.40;;;1.30;;
12088;SDS011;6107;49.078;8.578;2023-08-01T10:58:46;1.63;;;1.20;;
12088;SDS011;6107;49.078;8.578;2023-08-01T11:01:12;1.52;;;1.10;;
12088;SDS011;6107;49.078;8.578;2023-08-01T11:03:38;1.73;;;1.40;;
12088;SDS011;6107;49.078;8.578;2023-08-01T11:06:04;2.22;;;1.30;;
12088;SDS011;6107;49.078;8.578;2023-08-01T11:08:34;1.48;;;1.13;;
12088;SDS011;6107;49.078;8.578;2023-08-01T11:11:22;1.85;;;1.20;;
12088;SDS011;6107;49.078;8.578;2023-08-01T11:13:49;2.45;;;1.40;;
12088;SDS011;6107;49.078;8.578;2023-08-01T11:16:15;1.63;;;1.30;;
12088;SDS011;6107;49.078;8.578;2023-08-01T11:18:42;1.73;;;1.25;;
12088;SDS011;6107;49.078;8.578;2023-08-01T11:21:08;2.13;;;1.20;;
12088;SDS011;6107;49.078;8.578;2023-08-01T11:23:34;3.08;;;1.20;;
12088;SDS011;6107;49.078;8.578;2023-08-01T11:26:01;3.55;;;1.65;;
12088;SDS011;6107;49.078;8.578;2023-08-01T11:28:34;1.73;;;1.30;;
12088;SDS011;6107;49.078;8.578;2023-08-01T11:31:00;2.25;;;1.45;;
12088;SDS011;6107;49.078;8.578;2023-08-01T11:33:25;2.42;;;1.80;;
12088;SDS011;6107;49.078;8.578;2023-08-01T11:35:52;3.42;;;1.50;;
12088;SDS011;6107;49.078;8.578;2023-08-01T11:38:21;2.88;;;1.30;;
12088;SDS011;6107;49.078;8.578;2023-08-01T11:40:48;2.60;;;1.60;;
12088;SDS011;6107;49.078;8.578;2023-08-01T11:43:18;3.00;;;1.58;;
12088;SDS011;6107;49.078;8.578;2023-08-01T11:45:53;2.33;;;1.45;;
12088;SDS011;6107;49.078;8.578;2023-08-01T11:48:21;2.05;;;1.50;;
12088;SDS011;6107;49.078;8.578;2023-08-01T11:50:47;4.25;;;1.52;;
12088;SDS011;6107;49.078;8.578;2023-08-01T11:53:20;2.20;;;1.42;;
12088;SDS011;6107;49.078;8.578;2023-08-01T11:55:46;3.22;;;1.52;;
12088;SDS011;6107;49.078;8.578;2023-08-01T11:58:13;3.85;;;1.50;;
12088;SDS011;6107;49.078;8.578;2023-08-01T12:00:39;2.92;;;1.45;;
12088;SDS011;6107;49.078;8.578;2023-08-01T12:03:06;3.22;;;1.63;;
12088;SDS011;6107;49.078;8.578;2023-08-01T12:05:37;1.90;;;1.50;;
12088;SDS011;6107;49.078;8.578;2023-08-01T12:08:12;2.00;;;1.33;;
12088;SDS011;6107;49.078;8.578;2023-08-01T12:10:45;2.78;;;1.67;;
12088;SDS011;6107;49.078;8.578;2023-08-01T12:13:21;2.92;;;1.63;;
12088;SDS011;6107;49.078;8.578;2023-08-01T12:15:54;2.15;;;1.38;;
12088;SDS011;6107;49.078;8.578;2023-08-01T12:18:24;2.40;;;1.30;;
12088;SDS011;6107;49.078;8.578;2023-08-01T12:20:50;3.10;;;1.67;;
12088;SDS011;6107;49.078;8.578;2023-08-01T12:23:16;2.00;;;1.55;;
12088;SDS011;6107;49.078;8.578;2023-08-01T12:25:42;2.50;;;1.85;;
12088;SDS011;6107;49.078;8.578;2023-08-01T12:28:07;2.67;;;1.48;;
12088;SDS011;6107;49.078;8.578;2023-08-01T12:30:33;2.40;;;1.42;;
12088;SDS011;6107;49.078;8.578;2023-08-01T12:32:58;3.20;;;1.40;;
12088;SDS011;6107;49.078;8.578;2023-08-01T12:35:25;2.58;;;1.40;;
12088;SDS011;6107;49.078;8.578;2023-08-01T12:37:52;2.38;;;1.35;;
12088;SDS011;6107;49.078;8.578;2023-08-01T12:40:18;2.85;;;1.60;;
12088;SDS011;6107;49.078;8.578;2023-08-01T12:42:44;3.15;;;1.48;;
12088;SDS011;6107;49.078;8.578;2023-08-01T12:45:09;2.60;;;1.52;;
12088;SDS011;6107;49.078;8.578;2023-08-01T12:47:35;2.75;;;1.50;;
12088;SDS011;6107;49.078;8.578;2023-08-01T12:50:01;2.38;;;1.50;;
12088;SDS011;6107;49.078;8.578;2023-08-01T12:52:26;6.13;;;1.80;;
12088;SDS011;6107;49.078;8.578;2023-08-01T12:54:52;2.83;;;1.38;;
12088;SDS011;6107;49.078;8.578;2023-08-01T12:57:18;1.90;;;1.30;;
12088;SDS011;6107;49.078;8.578;2023-08-01T12:59:43;2.35;;;1.60;;
12088;SDS011;6107;49.078;8.578;2023-08-01T13:02:09;3.25;;;1.42;;
12088;SDS011;6107;49.078;8.578;2023-08-01T13:04:35;1.40;;;1.15;;
12088;SDS011;6107;49.078;8.578;2023-08-01T13:07:00;2.08;;;1.50;;
12088;SDS011;6107;49.078;8.578;2023-08-01T13:09:26;3.00;;;1.33;;
12088;SDS011;6107;49.078;8.578;2023-08-01T13:11:52;2.63;;;1.42;;
12088;SDS011;6107;49.078;8.578;2023-08-01T13:14:18;2.00;;;1.55;;
12088;SDS011;6107;49.078;8.578;2023-08-01T13:16:44;3.65;;;1.40;;
12088;SDS011;6107;49.078;8.578;2023-08-01T13:19:09;1.80;;;1.40;;
12088;SDS011;6107;49.078;8.578;2023-08-01T13:21:35;2.40;;;1.55;;
12088;SDS011;6107;49.078;8.578;2023-08-01T13:24:01;3.55;;;1.60;;
12088;SDS011;6107;49.078;8.578;2023-08-01T13:26:30;4.60;;;1.35;;
12088;SDS011;6107;49.078;8.578;2023-08-01T13:28:56;2.88;;;1.42;;
12088;SDS011;6107;49.078;8.578;2023-08-01T13:31:23;2.67;;;1.70;;
12088;SDS011;6107;49.078;8.578;2023-08-01T13:33:48;2.25;;;1.50;;
12088;SDS011;6107;49.078;8.578;2023-08-01T13:36:14;2.10;;;1.42;;
12088;SDS011;6107;49.078;8.578;2023-08-01T13:38:39;3.72;;;1.60;;
12088;SDS011;6107;49.078;8.578;2023-08-01T13:41:05;3.15;;;1.60;;
12088;SDS011;6107;49.078;8.578;2023-08-01T13:43:31;3.80;;;1.45;;
12088;SDS011;6107;49.078;8.578;2023-08-01T13:45:57;3.20;;;1.33;;
12088;SDS011;6107;49.078;8.578;2023-08-01T13:48:23;4.00;;;1.70;;
12088;SDS011;6107;49.078;8.578;2023-08-01T13:50:48;3.78;;;1.80;;
12088;SDS011;6107;49.078;8.578;2023-08-01T13:53:14;2.45;;;1.13;;
12088;SDS011;6107;49.078;8.578;2023-08-01T13:55:39;2.70;;;1.25;;
12088;SDS011;6107;49.078;8.578;2023-08-01T13:58:05;4.18;;;1.40;;
12088;SDS011;6107;49.078;8.578;2023-08-01T14:00:31;3.40;;;1.75;;
12088;SDS011;6107;49.078;8.578;2023-08-01T14:02:57;2.45;;;1.50;;
12088;SDS011;6107;49.078;8.578;2023-08-01T14:05:24;2.63;;;1.30;;
12088;SDS011;6107;49.078;8.578;2023-08-01T14:07:51;4.13;;;1.58;;
12088;SDS011;6107;49.078;8.578;2023-08-01T14:10:17;2.38;;;1.42;;
12088;SDS011;6107;49.078;8.578;2023-08-01T14:12:43;2.30;;;1.67;;
12088;SDS011;6107;49.078;8.578;2023-08-01T14:15:09;4.93;;;1.50;;
12088;SDS011;6107;49.078;8.578;2023-08-01T14:17:34;2.53;;;1.55;;
12088;SDS011;6107;49.078;8.578;2023-08-01T14:20:00;2.40;;;1.70;;
12088;SDS011;6107;49.078;8.578;2023-08-01T14:22:28;3.50;;;1.70;;
12088;SDS011;6107;49.078;8.578;2023-08-01T14:24:54;2.72;;;1.58;;
12088;SDS011;6107;49.078;8.578;2023-08-01T14:27:20;3.33;;;1.50;;
12088;SDS011;6107;49.078;8.578;2023-08-01T14:29:45;3.42;;;1.50;;
12088;SDS011;6107;49.078;8.578;2023-08-01T14:32:11;3.88;;;1.73;;
12088;SDS011;6107;49.078;8.578;2023-08-01T14:34:37;2.53;;;1.40;;
12088;SDS011;6107;49.078;8.578;2023-08-01T14:37:03;3.25;;;1.60;;
12088;SDS011;6107;49.078;8.578;2023-08-01T14:39:29;4.13;;;1.58;;
12088;SDS011;6107;49.078;8.578;2023-08-01T14:41:55;1.92;;;1.30;;
12088;SDS011;6107;49.078;8.578;2023-08-01T14:44:20;1.83;;;1.30;;
12088;SDS011;6107;49.078;8.578;2023-08-01T14:46:46;2.15;;;1.40;;
12088;SDS011;6107;49.078;8.578;2023-08-01T14:49:12;3.45;;;1.38;;
12088;SDS011;6107;49.078;8.578;2023-08-01T14:51:37;2.17;;;1.40;;
12088;SDS011;6107;49.078;8.578;2023-08-01T14:54:03;2.08;;;1.38;;
12088;SDS011;6107;49.078;8.578;2023-08-01T14:56:29;2.40;;;1.50;;
12088;SDS011;6107;49.078;8.578;2023-08-01T14:58:55;1.80;;;1.30;;